Terminal Aerodrome Forecast
Issued by NWS Shreveport, LA

Home | Current Version | Previous Version | Text Only | Print | Product List | Glossary On
Versions: 1 2 3 4 5 6 7 8 9 10 11 12
000
FTUS44 KSHV 011100
TAFELD
TAF
KELD 011138Z 0112/0212 04008KT 2SM -RA BR BKN015 OVC025
     FM011400 06005KT 6SM -DZ BR OVC010
     FM011900 06007KT P6SM OVC020
     FM020100 03004KT P6SM OVC025
     FM021000 02003KT 5SM BR BKN025=

USA.gov is the U.S. government's official web portal to all federal, state and local government web resources and services.